sensor_id;sensor_type;location;lat;lon;timestamp;P1;durP1;ratioP1;P2;durP2;ratioP2
28934;SDS011;16044;52.726;-2.108;2023-07-20T00:01:41;4.03;;;2.80;;
28934;SDS011;16044;52.726;-2.108;2023-07-20T00:04:11;10.07;;;4.13;;
28934;SDS011;16044;52.726;-2.108;2023-07-20T00:06:43;6.75;;;2.92;;
28934;SDS011;16044;52.726;-2.108;2023-07-20T00:09:16;5.22;;;3.25;;
28934;SDS011;16044;52.726;-2.108;2023-07-20T00:11:48;5.20;;;3.25;;
28934;SDS011;16044;52.726;-2.108;2023-07-20T00:14:20;7.13;;;3.22;;
28934;SDS011;16044;52.726;-2.108;2023-07-20T00:16:50;5.15;;;2.67;;
28934;SDS011;16044;52.726;-2.108;2023-07-20T00:19:25;5.38;;;2.95;;
28934;SDS011;16044;52.726;-2.108;2023-07-20T00:21:58;7.70;;;3.55;;
28934;SDS011;16044;52.726;-2.108;2023-07-20T00:24:33;7.38;;;3.33;;
28934;SDS011;16044;52.726;-2.108;2023-07-20T00:27:04;6.15;;;3.33;;
28934;SDS011;16044;52.726;-2.108;2023-07-20T00:29:35;9.93;;;4.05;;
28934;SDS011;16044;52.726;-2.108;2023-07-20T00:32:06;9.10;;;4.82;;
28934;SDS011;16044;52.726;-2.108;2023-07-20T00:34:37;6.68;;;3.20;;
28934;SDS011;16044;52.726;-2.108;2023-07-20T00:37:07;5.18;;;3.50;;
28934;SDS011;16044;52.726;-2.108;2023-07-20T00:39:40;7.65;;;4.68;;
28934;SDS011;16044;52.726;-2.108;2023-07-20T00:42:11;7.15;;;4.30;;
28934;SDS011;16044;52.726;-2.108;2023-07-20T00:44:41;8.85;;;4.97;;
28934;SDS011;16044;52.726;-2.108;2023-07-20T00:47:11;6.43;;;3.90;;
28934;SDS011;16044;52.726;-2.108;2023-07-20T00:49:42;7.93;;;4.18;;
28934;SDS011;16044;52.726;-2.108;2023-07-20T00:52:13;6.28;;;3.97;;
28934;SDS011;16044;52.726;-2.108;2023-07-20T00:54:47;7.30;;;4.40;;
28934;SDS011;16044;52.726;-2.108;2023-07-20T00:57:18;6.38;;;4.15;;
28934;SDS011;16044;52.726;-2.108;2023-07-20T00:59:49;10.63;;;4.40;;
28934;SDS011;16044;52.726;-2.108;2023-07-20T01:02:20;8.23;;;4.53;;
28934;SDS011;16044;52.726;-2.108;2023-07-20T01:04:50;7.75;;;4.65;;
28934;SDS011;16044;52.726;-2.108;2023-07-20T01:07:23;7.88;;;4.72;;
28934;SDS011;16044;52.726;-2.108;2023-07-20T01:10:03;9.57;;;5.18;;
28934;SDS011;16044;52.726;-2.108;2023-07-20T01:12:42;8.13;;;4.95;;
28934;SDS011;16044;52.726;-2.108;2023-07-20T01:15:16;9.83;;;4.97;;
28934;SDS011;16044;52.726;-2.108;2023-07-20T01:17:46;7.40;;;4.80;;
28934;SDS011;16044;52.726;-2.108;2023-07-20T01:20:18;7.95;;;4.30;;
28934;SDS011;16044;52.726;-2.108;2023-07-20T01:23:00;8.75;;;4.30;;
28934;SDS011;16044;52.726;-2.108;2023-07-20T01:26:07;7.10;;;3.92;;
28934;SDS011;16044;52.726;-2.108;2023-07-20T01:32:03;7.28;;;5.07;;
28934;SDS011;16044;52.726;-2.108;2023-07-20T01:34:36;7.00;;;5.00;;
28934;SDS011;16044;52.726;-2.108;2023-07-20T01:37:09;8.20;;;5.57;;
28934;SDS011;16044;52.726;-2.108;2023-07-20T01:39:41;8.50;;;5.30;;
28934;SDS011;16044;52.726;-2.108;2023-07-20T01:42:11;7.70;;;5.28;;
28934;SDS011;16044;52.726;-2.108;2023-07-20T01:44:42;9.52;;;5.18;;
28934;SDS011;16044;52.726;-2.108;2023-07-20T01:47:15;7.10;;;4.65;;
28934;SDS011;16044;52.726;-2.108;2023-07-20T01:49:45;8.15;;;5.07;;
28934;SDS011;16044;52.726;-2.108;2023-07-20T01:52:16;6.95;;;5.03;;
28934;SDS011;16044;52.726;-2.108;2023-07-20T01:54:46;8.55;;;4.45;;
28934;SDS011;16044;52.726;-2.108;2023-07-20T01:57:16;8.25;;;5.05;;
28934;SDS011;16044;52.726;-2.108;2023-07-20T01:59:47;7.13;;;5.03;;
28934;SDS011;16044;52.726;-2.108;2023-07-20T02:02:20;6.38;;;5.50;;
28934;SDS011;16044;52.726;-2.108;2023-07-20T02:04:55;8.02;;;6.07;;
28934;SDS011;16044;52.726;-2.108;2023-07-20T02:07:26;8.75;;;5.40;;
28934;SDS011;16044;52.726;-2.108;2023-07-20T02:09:56;10.57;;;6.45;;
28934;SDS011;16044;52.726;-2.108;2023-07-20T02:12:26;8.32;;;6.05;;
28934;SDS011;16044;52.726;-2.108;2023-07-20T02:14:57;9.60;;;7.25;;
28934;SDS011;16044;52.726;-2.108;2023-07-20T02:17:30;9.65;;;6.43;;
28934;SDS011;16044;52.726;-2.108;2023-07-20T02:20:00;8.85;;;6.95;;
28934;SDS011;16044;52.726;-2.108;2023-07-20T02:22:30;10.15;;;7.05;;
28934;SDS011;16044;52.726;-2.108;2023-07-20T02:25:00;15.13;;;7.60;;
28934;SDS011;16044;52.726;-2.108;2023-07-20T02:27:31;10.88;;;7.00;;
28934;SDS011;16044;52.726;-2.108;2023-07-20T02:30:01;9.52;;;6.80;;
28934;SDS011;16044;52.726;-2.108;2023-07-20T02:32:35;13.00;;;8.05;;
28934;SDS011;16044;52.726;-2.108;2023-07-20T02:35:06;10.90;;;8.27;;
28934;SDS011;16044;52.726;-2.108;2023-07-20T02:37:37;11.98;;;7.90;;
28934;SDS011;16044;52.726;-2.108;2023-07-20T02:40:08;12.05;;;8.35;;
28934;SDS011;16044;52.726;-2.108;2023-07-20T02:42:39;12.82;;;8.38;;
28934;SDS011;16044;52.726;-2.108;2023-07-20T02:45:10;11.15;;;7.80;;
28934;SDS011;16044;52.726;-2.108;2023-07-20T02:47:42;12.10;;;8.45;;
28934;SDS011;16044;52.726;-2.108;2023-07-20T02:50:13;11.05;;;8.15;;
28934;SDS011;16044;52.726;-2.108;2023-07-20T02:52:43;15.07;;;7.50;;
28934;SDS011;16044;52.726;-2.108;2023-07-20T02:55:13;9.60;;;8.00;;
28934;SDS011;16044;52.726;-2.108;2023-07-20T02:57:44;11.63;;;7.43;;
28934;SDS011;16044;52.726;-2.108;2023-07-20T03:00:15;15.93;;;7.65;;
28934;SDS011;16044;52.726;-2.108;2023-07-20T03:02:49;10.25;;;7.10;;
28934;SDS011;16044;52.726;-2.108;2023-07-20T03:05:22;10.93;;;7.35;;
28934;SDS011;16044;52.726;-2.108;2023-07-20T03:07:55;7.88;;;6.47;;
28934;SDS011;16044;52.726;-2.108;2023-07-20T03:10:25;10.07;;;7.25;;
28934;SDS011;16044;52.726;-2.108;2023-07-20T03:12:56;9.25;;;6.65;;
28934;SDS011;16044;52.726;-2.108;2023-07-20T03:15:26;8.50;;;6.45;;
28934;SDS011;16044;52.726;-2.108;2023-07-20T03:18:00;6.78;;;5.63;;
28934;SDS011;16044;52.726;-2.108;2023-07-20T03:20:31;9.20;;;6.57;;
28934;SDS011;16044;52.726;-2.108;2023-07-20T03:23:01;12.98;;;5.90;;
28934;SDS011;16044;52.726;-2.108;2023-07-20T03:25:31;9.13;;;6.70;;
28934;SDS011;16044;52.726;-2.108;2023-07-20T03:28:04;9.18;;;6.18;;
28934;SDS011;16044;52.726;-2.108;2023-07-20T03:30:34;8.68;;;6.68;;
28934;SDS011;16044;52.726;-2.108;2023-07-20T03:33:07;9.13;;;5.93;;
28934;SDS011;16044;52.726;-2.108;2023-07-20T03:35:37;10.23;;;6.20;;
28934;SDS011;16044;52.726;-2.108;2023-07-20T03:38:08;8.15;;;5.47;;
28934;SDS011;16044;52.726;-2.108;2023-07-20T03:40:38;8.50;;;6.07;;
28934;SDS011;16044;52.726;-2.108;2023-07-20T03:43:08;9.10;;;5.68;;
28934;SDS011;16044;52.726;-2.108;2023-07-20T03:45:39;6.65;;;4.82;;
28934;SDS011;16044;52.726;-2.108;2023-07-20T03:48:12;8.70;;;5.00;;
28934;SDS011;16044;52.726;-2.108;2023-07-20T03:50:43;9.32;;;5.10;;
28934;SDS011;16044;52.726;-2.108;2023-07-20T03:53:15;7.55;;;5.00;;
28934;SDS011;16044;52.726;-2.108;2023-07-20T03:55:46;7.05;;;5.55;;
28934;SDS011;16044;52.726;-2.108;2023-07-20T03:58:17;7.78;;;5.93;;
28934;SDS011;16044;52.726;-2.108;2023-07-20T04:00:48;9.32;;;5.60;;
28934;SDS011;16044;52.726;-2.108;2023-07-20T04:03:23;8.00;;;5.10;;
28934;SDS011;16044;52.726;-2.108;2023-07-20T04:05:54;10.95;;;5.80;;
28934;SDS011;16044;52.726;-2.108;2023-07-20T04:08:25;7.07;;;4.50;;
28934;SDS011;16044;52.726;-2.108;2023-07-20T04:10:55;8.07;;;5.55;;
28934;SDS011;16044;52.726;-2.108;2023-07-20T04:13:25;9.55;;;6.13;;
28934;SDS011;16044;52.726;-2.108;2023-07-20T04:16:00;10.05;;;5.18;;
28934;SDS011;16044;52.726;-2.108;2023-07-20T04:18:32;7.85;;;5.30;;
28934;SDS011;16044;52.726;-2.108;2023-07-20T04:21:03;9.18;;;5.10;;
28934;SDS011;16044;52.726;-2.108;2023-07-20T04:23:33;10.85;;;5.80;;
28934;SDS011;16044;52.726;-2.108;2023-07-20T04:26:04;9.02;;;4.85;;
28934;SDS011;16044;52.726;-2.108;2023-07-20T04:28:34;8.18;;;4.68;;
28934;SDS011;16044;52.726;-2.108;2023-07-20T04:31:09;8.18;;;4.85;;
28934;SDS011;16044;52.726;-2.108;2023-07-20T04:33:43;9.02;;;5.38;;
28934;SDS011;16044;52.726;-2.108;2023-07-20T04:36:13;6.95;;;4.88;;
28934;SDS011;16044;52.726;-2.108;2023-07-20T04:38:46;8.88;;;5.10;;
28934;SDS011;16044;52.726;-2.108;2023-07-20T04:41:17;8.77;;;5.43;;
28934;SDS011;16044;52.726;-2.108;2023-07-20T04:43:47;8.15;;;5.07;;
28934;SDS011;16044;52.726;-2.108;2023-07-20T04:46:17;7.20;;;5.13;;
28934;SDS011;16044;52.726;-2.108;2023-07-20T04:48:51;8.88;;;5.15;;
28934;SDS011;16044;52.726;-2.108;2023-07-20T04:51:21;7.25;;;4.60;;
28934;SDS011;16044;52.726;-2.108;2023-07-20T04:53:51;7.55;;;5.18;;
28934;SDS011;16044;52.726;-2.108;2023-07-20T04:56:22;8.48;;;5.47;;
28934;SDS011;16044;52.726;-2.108;2023-07-20T04:58:52;8.98;;;4.85;;
28934;SDS011;16044;52.726;-2.108;2023-07-20T05:01:23;7.20;;;4.70;;
28934;SDS011;16044;52.726;-2.108;2023-07-20T05:03:56;7.38;;;4.65;;
28934;SDS011;16044;52.726;-2.108;2023-07-20T05:06:27;12.75;;;5.45;;
28934;SDS011;16044;52.726;-2.108;2023-07-20T05:08:57;6.55;;;4.65;;
28934;SDS011;16044;52.726;-2.108;2023-07-20T05:11:27;7.28;;;4.32;;
28934;SDS011;16044;52.726;-2.108;2023-07-20T05:13:58;10.27;;;4.70;;
28934;SDS011;16044;52.726;-2.108;2023-07-20T05:16:29;5.28;;;4.45;;
28934;SDS011;16044;52.726;-2.108;2023-07-20T05:19:02;6.18;;;4.10;;
28934;SDS011;16044;52.726;-2.108;2023-07-20T05:21:32;6.97;;;4.32;;
28934;SDS011;16044;52.726;-2.108;2023-07-20T05:24:03;7.45;;;4.40;;
28934;SDS011;16044;52.726;-2.108;2023-07-20T05:26:34;10.18;;;4.75;;
28934;SDS011;16044;52.726;-2.108;2023-07-20T05:29:04;9.70;;;4.60;;
28934;SDS011;16044;52.726;-2.108;2023-07-20T05:31:35;8.07;;;4.50;;
28934;SDS011;16044;52.726;-2.108;2023-07-20T05:34:08;9.43;;;4.10;;
28934;SDS011;16044;52.726;-2.108;2023-07-20T05:36:38;10.25;;;4.68;;
28934;SDS011;16044;52.726;-2.108;2023-07-20T05:39:08;6.15;;;3.70;;
28934;SDS011;16044;52.726;-2.108;2023-07-20T05:41:39;8.80;;;4.15;;
28934;SDS011;16044;52.726;-2.108;2023-07-20T05:44:09;5.30;;;3.80;;
28934;SDS011;16044;52.726;-2.108;2023-07-20T05:46:39;7.07;;;4.20;;
28934;SDS011;16044;52.726;-2.108;2023-07-20T05:49:25;5.30;;;4.00;;
28934;SDS011;16044;52.726;-2.108;2023-07-20T05:51:57;5.15;;;3.42;;
28934;SDS011;16044;52.726;-2.108;2023-07-20T05:54:27;5.72;;;4.22;;
28934;SDS011;16044;52.726;-2.108;2023-07-20T05:56:57;5.28;;;3.40;;
28934;SDS011;16044;52.726;-2.108;2023-07-20T05:59:28;4.65;;;3.25;;
28934;SDS011;16044;52.726;-2.108;2023-07-20T06:01:58;9.07;;;3.78;;
28934;SDS011;16044;52.726;-2.108;2023-07-20T06:04:31;8.25;;;3.95;;
28934;SDS011;16044;52.726;-2.108;2023-07-20T06:07:02;5.63;;;3.25;;
28934;SDS011;16044;52.726;-2.108;2023-07-20T06:09:34;6.45;;;3.85;;
28934;SDS011;16044;52.726;-2.108;2023-07-20T06:12:05;5.75;;;3.90;;
28934;SDS011;16044;52.726;-2.108;2023-07-20T06:14:37;7.25;;;3.72;;
28934;SDS011;16044;52.726;-2.108;2023-07-20T06:17:07;6.47;;;3.65;;
28934;SDS011;16044;52.726;-2.108;2023-07-20T06:19:41;6.30;;;3.42;;
28934;SDS011;16044;52.726;-2.108;2023-07-20T06:22:11;5.80;;;3.60;;
28934;SDS011;16044;52.726;-2.108;2023-07-20T06:24:42;6.75;;;3.08;;
28934;SDS011;16044;52.726;-2.108;2023-07-20T06:27:12;5.32;;;3.45;;
28934;SDS011;16044;52.726;-2.108;2023-07-20T06:29:43;6.72;;;3.55;;
28934;SDS011;16044;52.726;-2.108;2023-07-20T06:32:13;4.13;;;2.95;;
28934;SDS011;16044;52.726;-2.108;2023-07-20T06:34:46;5.72;;;3.20;;
28934;SDS011;16044;52.726;-2.108;2023-07-20T06:37:16;5.80;;;3.60;;
28934;SDS011;16044;52.726;-2.108;2023-07-20T06:39:47;5.70;;;3.38;;
28934;SDS011;16044;52.726;-2.108;2023-07-20T06:42:20;10.80;;;3.45;;
28934;SDS011;16044;52.726;-2.108;2023-07-20T06:44:51;5.85;;;3.30;;
28934;SDS011;16044;52.726;-2.108;2023-07-20T06:47:21;5.05;;;3.30;;
28934;SDS011;16044;52.726;-2.108;2023-07-20T06:49:54;5.43;;;3.22;;
28934;SDS011;16044;52.726;-2.108;2023-07-20T06:52:24;6.47;;;3.88;;
28934;SDS011;16044;52.726;-2.108;2023-07-20T06:54:55;6.60;;;3.10;;
28934;SDS011;16044;52.726;-2.108;2023-07-20T06:57:30;6.05;;;3.38;;
28934;SDS011;16044;52.726;-2.108;2023-07-20T07:00:01;6.70;;;3.50;;
28934;SDS011;16044;52.726;-2.108;2023-07-20T07:02:33;6.90;;;3.53;;
28934;SDS011;16044;52.726;-2.108;2023-07-20T07:05:07;5.53;;;2.90;;
28934;SDS011;16044;52.726;-2.108;2023-07-20T07:07:40;7.55;;;3.45;;
28934;SDS011;16044;52.726;-2.108;2023-07-20T07:10:11;5.25;;;3.38;;
28934;SDS011;16044;52.726;-2.108;2023-07-20T07:12:41;7.88;;;3.42;;
28934;SDS011;16044;52.726;-2.108;2023-07-20T07:15:11;6.20;;;3.40;;
28934;SDS011;16044;52.726;-2.108;2023-07-20T07:17:43;4.78;;;3.00;;
28934;SDS011;16044;52.726;-2.108;2023-07-20T07:20:16;6.53;;;3.05;;
28934;SDS011;16044;52.726;-2.108;2023-07-20T07:22:47;6.18;;;3.10;;
28934;SDS011;16044;52.726;-2.108;2023-07-20T07:25:20;8.63;;;3.15;;
28934;SDS011;16044;52.726;-2.108;2023-07-20T07:27:50;5.13;;;2.65;;
28934;SDS011;16044;52.726;-2.108;2023-07-20T07:30:22;6.40;;;3.17;;
28934;SDS011;16044;52.726;-2.108;2023-07-20T07:32:53;6.30;;;3.58;;
28934;SDS011;16044;52.726;-2.108;2023-07-20T07:35:26;7.10;;;3.60;;
28934;SDS011;16044;52.726;-2.108;2023-07-20T07:37:56;7.00;;;3.47;;
28934;SDS011;16044;52.726;-2.108;2023-07-20T07:40:46;4.38;;;3.17;;
28934;SDS011;16044;52.726;-2.108;2023-07-20T07:43:17;5.78;;;3.22;;
28934;SDS011;16044;52.726;-2.108;2023-07-20T07:45:47;5.95;;;3.60;;
28934;SDS011;16044;52.726;-2.108;2023-07-20T07:48:17;6.40;;;3.47;;
28934;SDS011;16044;52.726;-2.108;2023-07-20T07:50:51;7.70;;;4.38;;
28934;SDS011;16044;52.726;-2.108;2023-07-20T07:53:21;6.82;;;3.88;;
28934;SDS011;16044;52.726;-2.108;2023-07-20T07:55:52;6.00;;;4.18;;
28934;SDS011;16044;52.726;-2.108;2023-07-20T07:58:23;5.50;;;3.75;;
28934;SDS011;16044;52.726;-2.108;2023-07-20T08:00:53;7.15;;;3.92;;
28934;SDS011;16044;52.726;-2.108;2023-07-20T08:03:24;7.72;;;4.30;;
28934;SDS011;16044;52.726;-2.108;2023-07-20T08:05:57;10.45;;;4.03;;
28934;SDS011;16044;52.726;-2.108;2023-07-20T08:08:31;7.13;;;4.43;;
28934;SDS011;16044;52.726;-2.108;2023-07-20T08:11:03;8.38;;;4.82;;
28934;SDS011;16044;52.726;-2.108;2023-07-20T08:13:34;7.80;;;4.70;;
28934;SDS011;16044;52.726;-2.108;2023-07-20T08:16:04;9.90;;;5.80;;
28934;SDS011;16044;52.726;-2.108;2023-07-20T08:18:35;9.02;;;5.30;;
28934;SDS011;16044;52.726;-2.108;2023-07-20T08:21:08;8.57;;;5.07;;
28934;SDS011;16044;52.726;-2.108;2023-07-20T08:23:38;11.65;;;5.90;;
28934;SDS011;16044;52.726;-2.108;2023-07-20T08:26:10;8.70;;;5.90;;
28934;SDS011;16044;52.726;-2.108;2023-07-20T08:28:40;9.73;;;6.15;;
28934;SDS011;16044;52.726;-2.108;2023-07-20T08:31:11;11.02;;;6.97;;
28934;SDS011;16044;52.726;-2.108;2023-07-20T08:33:42;12.30;;;6.70;;
28934;SDS011;16044;52.726;-2.108;2023-07-20T08:36:16;11.43;;;6.50;;
28934;SDS011;16044;52.726;-2.108;2023-07-20T08:38:47;9.80;;;6.33;;
28934;SDS011;16044;52.726;-2.108;2023-07-20T08:41:17;7.93;;;5.50;;
28934;SDS011;16044;52.726;-2.108;2023-07-20T08:43:49;9.35;;;5.82;;
28934;SDS011;16044;52.726;-2.108;2023-07-20T08:46:24;7.88;;;5.70;;
28934;SDS011;16044;52.726;-2.108;2023-07-20T08:48:56;9.88;;;6.82;;
28934;SDS011;16044;52.726;-2.108;2023-07-20T08:51:33;10.70;;;6.50;;
28934;SDS011;16044;52.726;-2.108;2023-07-20T08:54:05;8.70;;;5.47;;
28934;SDS011;16044;52.726;-2.108;2023-07-20T08:56:37;7.68;;;5.18;;
28934;SDS011;16044;52.726;-2.108;2023-07-20T08:59:10;8.30;;;5.70;;
28934;SDS011;16044;52.726;-2.108;2023-07-20T09:01:42;9.15;;;5.78;;
28934;SDS011;16044;52.726;-2.108;2023-07-20T09:04:14;10.30;;;5.90;;
28934;SDS011;16044;52.726;-2.108;2023-07-20T09:06:47;9.60;;;6.43;;
28934;SDS011;16044;52.726;-2.108;2023-07-20T09:09:19;9.63;;;5.85;;
28934;SDS011;16044;52.726;-2.108;2023-07-20T09:11:50;9.00;;;6.15;;
28934;SDS011;16044;52.726;-2.108;2023-07-20T09:14:17;9.43;;;6.00;;
28934;SDS011;16044;52.726;-2.108;2023-07-20T09:16:48;10.05;;;6.68;;
28934;SDS011;16044;52.726;-2.108;2023-07-20T09:19:21;7.10;;;5.47;;
28934;SDS011;16044;52.726;-2.108;2023-07-20T09:21:54;7.25;;;6.00;;
28934;SDS011;16044;52.726;-2.108;2023-07-20T09:24:28;8.40;;;6.53;;
28934;SDS011;16044;52.726;-2.108;2023-07-20T09:26:59;9.98;;;6.47;;
28934;SDS011;16044;52.726;-2.108;2023-07-20T09:29:32;12.10;;;6.97;;
28934;SDS011;16044;52.726;-2.108;2023-07-20T09:32:03;10.18;;;6.78;;
28934;SDS011;16044;52.726;-2.108;2023-07-20T09:34:49;9.07;;;6.22;;
28934;SDS011;16044;52.726;-2.108;2023-07-20T09:37:23;8.18;;;6.53;;
28934;SDS011;16044;52.726;-2.108;2023-07-20T09:39:54;8.50;;;6.40;;
28934;SDS011;16044;52.726;-2.108;2023-07-20T09:42:27;9.82;;;6.85;;
28934;SDS011;16044;52.726;-2.108;2023-07-20T09:45:01;10.45;;;7.18;;
28934;SDS011;16044;52.726;-2.108;2023-07-20T09:47:31;11.15;;;7.03;;
28934;SDS011;16044;52.726;-2.108;2023-07-20T09:50:06;8.75;;;6.13;;
28934;SDS011;16044;52.726;-2.108;2023-07-20T09:55:17;6.53;;;5.00;;
28934;SDS011;16044;52.726;-2.108;2023-07-20T09:57:47;8.00;;;5.38;;
28934;SDS011;16044;52.726;-2.108;2023-07-20T10:00:20;7.30;;;5.60;;
28934;SDS011;16044;52.726;-2.108;2023-07-20T10:02:53;7.90;;;5.32;;
28934;SDS011;16044;52.726;-2.108;2023-07-20T10:05:26;7.57;;;5.35;;
28934;SDS011;16044;52.726;-2.108;2023-07-20T10:08:06;9.38;;;5.30;;
28934;SDS011;16044;52.726;-2.108;2023-07-20T10:10:45;7.03;;;5.32;;
28934;SDS011;16044;52.726;-2.108;2023-07-20T10:13:17;8.15;;;6.25;;
28934;SDS011;16044;52.726;-2.108;2023-07-20T10:15:54;10.30;;;6.30;;
28934;SDS011;16044;52.726;-2.108;2023-07-20T10:18:31;10.93;;;7.30;;
28934;SDS011;16044;52.726;-2.108;2023-07-20T10:21:11;11.60;;;7.70;;
28934;SDS011;16044;52.726;-2.108;2023-07-20T10:23:48;12.48;;;8.70;;
28934;SDS011;16044;52.726;-2.108;2023-07-20T10:26:18;11.93;;;7.90;;
28934;SDS011;16044;52.726;-2.108;2023-07-20T10:28:49;16.60;;;7.97;;
28934;SDS011;16044;52.726;-2.108;2023-07-20T10:31:20;10.40;;;7.95;;
28934;SDS011;16044;52.726;-2.108;2023-07-20T10:33:51;9.77;;;6.95;;
28934;SDS011;16044;52.726;-2.108;2023-07-20T10:36:24;11.57;;;7.50;;
28934;SDS011;16044;52.726;-2.108;2023-07-20T10:41:33;6.32;;;4.55;;
28934;SDS011;16044;52.726;-2.108;2023-07-20T10:44:07;3.70;;;3.20;;
28934;SDS011;16044;52.726;-2.108;2023-07-20T10:46:43;4.60;;;3.80;;
28934;SDS011;16044;52.726;-2.108;2023-07-20T10:49:14;6.43;;;3.75;;
28934;SDS011;16044;52.726;-2.108;2023-07-20T10:51:56;4.85;;;3.63;;
28934;SDS011;16044;52.726;-2.108;2023-07-20T10:57:28;5.28;;;3.17;;
28934;SDS011;16044;52.726;-2.108;2023-07-20T11:00:07;7.65;;;3.55;;
28934;SDS011;16044;52.726;-2.108;2023-07-20T11:02:47;5.55;;;3.90;;
28934;SDS011;16044;52.726;-2.108;2023-07-20T11:05:33;5.38;;;4.25;;
28934;SDS011;16044;52.726;-2.108;2023-07-20T11:08:10;7.72;;;4.25;;
28934;SDS011;16044;52.726;-2.108;2023-07-20T11:10:44;5.78;;;4.05;;
28934;SDS011;16044;52.726;-2.108;2023-07-20T11:13:17;6.97;;;5.00;;
28934;SDS011;16044;52.726;-2.108;2023-07-20T11:16:01;6.97;;;5.55;;
28934;SDS011;16044;52.726;-2.108;2023-07-20T11:18:34;7.18;;;5.22;;
28934;SDS011;16044;52.726;-2.108;2023-07-20T11:21:09;9.02;;;6.40;;
28934;SDS011;16044;52.726;-2.108;2023-07-20T11:23:41;9.45;;;6.30;;
28934;SDS011;16044;52.726;-2.108;2023-07-20T11:26:15;9.05;;;7.03;;
28934;SDS011;16044;52.726;-2.108;2023-07-20T11:28:48;7.53;;;6.60;;
28934;SDS011;16044;52.726;-2.108;2023-07-20T11:31:18;9.40;;;7.07;;
28934;SDS011;16044;52.726;-2.108;2023-07-20T11:33:49;8.88;;;7.03;;
28934;SDS011;16044;52.726;-2.108;2023-07-20T11:36:20;9.57;;;7.20;;
28934;SDS011;16044;52.726;-2.108;2023-07-20T11:38:53;8.40;;;6.97;;
28934;SDS011;16044;52.726;-2.108;2023-07-20T11:41:27;11.20;;;7.38;;
28934;SDS011;16044;52.726;-2.108;2023-07-20T11:43:57;8.82;;;6.45;;
28934;SDS011;16044;52.726;-2.108;2023-07-20T11:46:27;8.55;;;6.47;;
28934;SDS011;16044;52.726;-2.108;2023-07-20T11:48:58;9.05;;;6.90;;
28934;SDS011;16044;52.726;-2.108;2023-07-20T11:51:29;8.75;;;6.82;;
28934;SDS011;16044;52.726;-2.108;2023-07-20T11:54:01;8.27;;;6.45;;
28934;SDS011;16044;52.726;-2.108;2023-07-20T11:56:37;8.43;;;6.55;;
28934;SDS011;16044;52.726;-2.108;2023-07-20T11:59:14;9.00;;;6.63;;
28934;SDS011;16044;52.726;-2.108;2023-07-20T12:01:48;8.95;;;6.57;;
28934;SDS011;16044;52.726;-2.108;2023-07-20T12:04:19;8.77;;;6.55;;
28934;SDS011;16044;52.726;-2.108;2023-07-20T12:06:53;9.27;;;6.80;;
28934;SDS011;16044;52.726;-2.108;2023-07-20T12:09:23;7.68;;;6.00;;
28934;SDS011;16044;52.726;-2.108;2023-07-20T12:12:14;9.60;;;6.40;;
28934;SDS011;16044;52.726;-2.108;2023-07-20T12:14:44;7.25;;;6.03;;
28934;SDS011;16044;52.726;-2.108;2023-07-20T12:17:15;7.63;;;5.88;;
28934;SDS011;16044;52.726;-2.108;2023-07-20T12:19:46;9.07;;;6.85;;
28934;SDS011;16044;52.726;-2.108;2023-07-20T12:22:16;8.57;;;6.57;;
28934;SDS011;16044;52.726;-2.108;2023-07-20T12:24:47;8.73;;;6.80;;
28934;SDS011;16044;52.726;-2.108;2023-07-20T12:27:25;9.13;;;7.15;;
28934;SDS011;16044;52.726;-2.108;2023-07-20T12:29:57;10.25;;;6.32;;
28934;SDS011;16044;52.726;-2.108;2023-07-20T12:32:29;10.57;;;6.85;;
28934;SDS011;16044;52.726;-2.108;2023-07-20T12:34:59;10.30;;;7.00;;
28934;SDS011;16044;52.726;-2.108;2023-07-20T12:37:30;10.10;;;7.20;;
28934;SDS011;16044;52.726;-2.108;2023-07-20T12:40:00;8.55;;;6.55;;
28934;SDS011;16044;52.726;-2.108;2023-07-20T12:42:33;8.95;;;6.80;;
28934;SDS011;16044;52.726;-2.108;2023-07-20T12:45:04;11.02;;;5.80;;
28934;SDS011;16044;52.726;-2.108;2023-07-20T12:47:35;6.47;;;5.15;;
28934;SDS011;16044;52.726;-2.108;2023-07-20T12:50:06;6.47;;;5.45;;
28934;SDS011;16044;52.726;-2.108;2023-07-20T12:52:37;7.80;;;5.80;;
28934;SDS011;16044;52.726;-2.108;2023-07-20T12:55:09;8.95;;;5.68;;
28934;SDS011;16044;52.726;-2.108;2023-07-20T12:57:43;8.77;;;6.93;;
28934;SDS011;16044;52.726;-2.108;2023-07-20T13:00:13;11.55;;;7.82;;
28934;SDS011;16044;52.726;-2.108;2023-07-20T13:02:45;11.23;;;8.35;;
28934;SDS011;16044;52.726;-2.108;2023-07-20T13:05:33;9.45;;;6.78;;
28934;SDS011;16044;52.726;-2.108;2023-07-20T13:08:06;8.45;;;6.82;;
28934;SDS011;16044;52.726;-2.108;2023-07-20T13:10:40;9.88;;;7.38;;
28934;SDS011;16044;52.726;-2.108;2023-07-20T13:13:13;10.50;;;6.78;;
28934;SDS011;16044;52.726;-2.108;2023-07-20T13:15:44;13.20;;;9.98;;
28934;SDS011;16044;52.726;-2.108;2023-07-20T13:18:15;14.75;;;9.13;;
28934;SDS011;16044;52.726;-2.108;2023-07-20T13:20:46;9.63;;;7.45;;
28934;SDS011;16044;52.726;-2.108;2023-07-20T13:23:16;9.15;;;7.10;;
28934;SDS011;16044;52.726;-2.108;2023-07-20T13:25:46;9.57;;;7.70;;
28934;SDS011;16044;52.726;-2.108;2023-07-20T13:28:19;10.02;;;7.32;;
28934;SDS011;16044;52.726;-2.108;2023-07-20T13:30:50;9.38;;;6.80;;
28934;SDS011;16044;52.726;-2.108;2023-07-20T13:33:21;10.52;;;7.50;;
28934;SDS011;16044;52.726;-2.108;2023-07-20T13:35:54;11.63;;;7.70;;
28934;SDS011;16044;52.726;-2.108;2023-07-20T13:38:24;9.93;;;7.40;;
28934;SDS011;16044;52.726;-2.108;2023-07-20T13:40:54;13.68;;;8.07;;
28934;SDS011;16044;52.726;-2.108;2023-07-20T13:43:27;10.45;;;7.50;;
28934;SDS011;16044;52.726;-2.108;2023-07-20T13:45:57;10.77;;;7.70;;
28934;SDS011;16044;52.726;-2.108;2023-07-20T13:48:28;9.80;;;7.55;;
28934;SDS011;16044;52.726;-2.108;2023-07-20T13:51:02;14.32;;;8.23;;
28934;SDS011;16044;52.726;-2.108;2023-07-20T13:53:33;12.55;;;8.18;;
28934;SDS011;16044;52.726;-2.108;2023-07-20T13:56:06;11.20;;;8.48;;
28934;SDS011;16044;52.726;-2.108;2023-07-20T13:58:42;11.93;;;7.82;;
28934;SDS011;16044;52.726;-2.108;2023-07-20T14:01:16;9.75;;;7.80;;
28934;SDS011;16044;52.726;-2.108;2023-07-20T14:03:49;11.18;;;7.97;;
28934;SDS011;16044;52.726;-2.108;2023-07-20T14:06:20;9.68;;;7.28;;
28934;SDS011;16044;52.726;-2.108;2023-07-20T14:08:55;9.07;;;7.28;;
28934;SDS011;16044;52.726;-2.108;2023-07-20T14:11:25;10.15;;;7.22;;
28934;SDS011;16044;52.726;-2.108;2023-07-20T14:14:01;8.45;;;6.88;;
28934;SDS011;16044;52.726;-2.108;2023-07-20T14:16:32;9.43;;;7.32;;
28934;SDS011;16044;52.726;-2.108;2023-07-20T14:19:02;10.60;;;7.70;;
28934;SDS011;16044;52.726;-2.108;2023-07-20T14:21:33;9.93;;;7.57;;
28934;SDS011;16044;52.726;-2.108;2023-07-20T14:24:05;9.80;;;7.03;;
28934;SDS011;16044;52.726;-2.108;2023-07-20T14:26:36;10.40;;;6.50;;
28934;SDS011;16044;52.726;-2.108;2023-07-20T14:29:12;10.45;;;7.15;;
28934;SDS011;16044;52.726;-2.108;2023-07-20T14:31:44;9.68;;;7.00;;
28934;SDS011;16044;52.726;-2.108;2023-07-20T14:34:19;9.05;;;6.85;;
28934;SDS011;16044;52.726;-2.108;2023-07-20T14:36:49;9.00;;;7.05;;
28934;SDS011;16044;52.726;-2.108;2023-07-20T14:39:20;9.70;;;6.78;;
28934;SDS011;16044;52.726;-2.108;2023-07-20T14:41:51;8.32;;;6.68;;
28934;SDS011;16044;52.726;-2.108;2023-07-20T14:44:24;7.93;;;6.28;;
28934;SDS011;16044;52.726;-2.108;2023-07-20T14:46:55;8.90;;;6.32;;
28934;SDS011;16044;52.726;-2.108;2023-07-20T14:52:10;8.60;;;6.88;;
28934;SDS011;16044;52.726;-2.108;2023-07-20T14:54:42;9.73;;;7.20;;
28934;SDS011;16044;52.726;-2.108;2023-07-20T14:57:12;9.13;;;6.70;;
28934;SDS011;16044;52.726;-2.108;2023-07-20T14:59:46;9.70;;;6.75;;
28934;SDS011;16044;52.726;-2.108;2023-07-20T15:02:16;11.38;;;7.22;;
28934;SDS011;16044;52.726;-2.108;2023-07-20T15:04:47;7.97;;;6.50;;
28934;SDS011;16044;52.726;-2.108;2023-07-20T15:07:18;9.55;;;6.85;;
28934;SDS011;16044;52.726;-2.108;2023-07-20T15:09:50;8.65;;;6.45;;
28934;SDS011;16044;52.726;-2.108;2023-07-20T15:12:20;11.45;;;5.68;;
28934;SDS011;16044;52.726;-2.108;2023-07-20T15:15:04;9.77;;;6.70;;